sensor_id;sensor_type;location;lat;lon;timestamp;pressure;altitude;pressure_sealevel;temperature
75811;BMP280;64449;50.016;19.954;2023-04-28T00:01:22;99204.10;;;7.02
75811;BMP280;64449;50.016;19.954;2023-04-28T00:03:47;99204.73;;;7.03
75811;BMP280;64449;50.016;19.954;2023-04-28T00:06:13;99207.85;;;7.03
75811;BMP280;64449;50.016;19.954;2023-04-28T00:08:39;99212.79;;;7.03
75811;BMP280;64449;50.016;19.954;2023-04-28T00:11:08;99218.77;;;7.06
75811;BMP280;64449;50.016;19.954;2023-04-28T00:13:34;99222.48;;;7.08
75811;BMP280;64449;50.016;19.954;2023-04-28T00:16:00;99224.48;;;7.08
75811;BMP280;64449;50.016;19.954;2023-04-28T00:18:25;99222.33;;;7.11
75811;BMP280;64449;50.016;19.954;2023-04-28T00:20:51;99217.29;;;7.10
75811;BMP280;64449;50.016;19.954;2023-04-28T00:23:16;99216.50;;;7.13
75811;BMP280;64449;50.016;19.954;2023-04-28T00:25:41;99216.38;;;7.14
75811;BMP280;64449;50.016;19.954;2023-04-28T00:28:07;99215.19;;;7.14
75811;BMP280;64449;50.016;19.954;2023-04-28T00:30:32;99217.92;;;7.16
75811;BMP280;64449;50.016;19.954;2023-04-28T00:32:58;99215.44;;;7.17
75811;BMP280;64449;50.016;19.954;2023-04-28T00:35:23;99213.60;;;7.10
75811;BMP280;64449;50.016;19.954;2023-04-28T00:37:48;99214.20;;;7.02
75811;BMP280;64449;50.016;19.954;2023-04-28T00:40:14;99211.83;;;6.95
75811;BMP280;64449;50.016;19.954;2023-04-28T00:42:40;99208.08;;;6.92
75811;BMP280;64449;50.016;19.954;2023-04-28T00:45:06;99202.20;;;6.88
75811;BMP280;64449;50.016;19.954;2023-04-28T00:47:33;99201.98;;;6.79
75811;BMP280;64449;50.016;19.954;2023-04-28T00:50:00;99200.69;;;6.73
75811;BMP280;64449;50.016;19.954;2023-04-28T00:52:26;99203.52;;;6.72
75811;BMP280;64449;50.016;19.954;2023-04-28T00:54:52;99199.70;;;6.70
75811;BMP280;64449;50.016;19.954;2023-04-28T00:57:18;99198.98;;;6.70
75811;BMP280;64449;50.016;19.954;2023-04-28T00:59:44;99203.08;;;6.70
75811;BMP280;64449;50.016;19.954;2023-04-28T01:02:10;99206.44;;;6.70
75811;BMP280;64449;50.016;19.954;2023-04-28T01:04:41;99201.55;;;6.69
75811;BMP280;64449;50.016;19.954;2023-04-28T01:07:07;99200.36;;;6.63
75811;BMP280;64449;50.016;19.954;2023-04-28T01:09:32;99197.07;;;6.54
75811;BMP280;64449;50.016;19.954;2023-04-28T01:11:57;99196.59;;;6.47
75811;BMP280;64449;50.016;19.954;2023-04-28T01:14:23;99200.44;;;6.49
75811;BMP280;64449;50.016;19.954;2023-04-28T01:16:48;99202.20;;;6.54
75811;BMP280;64449;50.016;19.954;2023-04-28T01:19:20;99204.98;;;6.57
75811;BMP280;64449;50.016;19.954;2023-04-28T01:21:49;99205.14;;;6.60
75811;BMP280;64449;50.016;19.954;2023-04-28T01:24:15;99206.59;;;6.63
75811;BMP280;64449;50.016;19.954;2023-04-28T01:26:41;99207.48;;;6.66
75811;BMP280;64449;50.016;19.954;2023-04-28T01:29:06;99205.36;;;6.69
75811;BMP280;64449;50.016;19.954;2023-04-28T01:31:32;99199.31;;;6.69
75811;BMP280;64449;50.016;19.954;2023-04-28T01:33:58;99201.50;;;6.70
75811;BMP280;64449;50.016;19.954;2023-04-28T01:36:23;99203.02;;;6.69
75811;BMP280;64449;50.016;19.954;2023-04-28T01:38:49;99207.25;;;6.70
75811;BMP280;64449;50.016;19.954;2023-04-28T01:41:15;99210.35;;;6.69
75811;BMP280;64449;50.016;19.954;2023-04-28T01:43:41;99212.64;;;6.68
75811;BMP280;64449;50.016;19.954;2023-04-28T01:46:08;99215.25;;;6.68
75811;BMP280;64449;50.016;19.954;2023-04-28T01:48:34;99211.33;;;6.66
75811;BMP280;64449;50.016;19.954;2023-04-28T01:51:00;99210.91;;;6.64
75811;BMP280;64449;50.016;19.954;2023-04-28T01:53:25;99208.73;;;6.61
75811;BMP280;64449;50.016;19.954;2023-04-28T01:55:51;99212.84;;;6.58
75811;BMP280;64449;50.016;19.954;2023-04-28T01:58:16;99213.46;;;6.60
75811;BMP280;64449;50.016;19.954;2023-04-28T02:00:41;99211.17;;;6.60
75811;BMP280;64449;50.016;19.954;2023-04-28T02:03:07;99209.93;;;6.59
75811;BMP280;64449;50.016;19.954;2023-04-28T02:05:32;99210.20;;;6.60
75811;BMP280;64449;50.016;19.954;2023-04-28T02:07:57;99206.70;;;6.61
75811;BMP280;64449;50.016;19.954;2023-04-28T02:10:23;99207.23;;;6.65
75811;BMP280;64449;50.016;19.954;2023-04-28T02:12:48;99205.33;;;6.66
75811;BMP280;64449;50.016;19.954;2023-04-28T02:15:14;99206.55;;;6.67
75811;BMP280;64449;50.016;19.954;2023-04-28T02:17:39;99203.27;;;6.64
75811;BMP280;64449;50.016;19.954;2023-04-28T02:20:06;99204.33;;;6.58
75811;BMP280;64449;50.016;19.954;2023-04-28T02:22:31;99208.58;;;6.54
75811;BMP280;64449;50.016;19.954;2023-04-28T02:24:57;99206.36;;;6.54
75811;BMP280;64449;50.016;19.954;2023-04-28T02:27:22;99205.73;;;6.57
75811;BMP280;64449;50.016;19.954;2023-04-28T02:29:48;99207.47;;;6.61
75811;BMP280;64449;50.016;19.954;2023-04-28T02:32:13;99209.59;;;6.64
75811;BMP280;64449;50.016;19.954;2023-04-28T02:34:38;99214.86;;;6.69
75811;BMP280;64449;50.016;19.954;2023-04-28T02:37:04;99212.09;;;6.71
75811;BMP280;64449;50.016;19.954;2023-04-28T02:39:29;99214.06;;;6.76
75811;BMP280;64449;50.016;19.954;2023-04-28T02:41:57;99213.73;;;6.78
75811;BMP280;64449;50.016;19.954;2023-04-28T02:44:23;99214.11;;;6.79
75811;BMP280;64449;50.016;19.954;2023-04-28T02:46:48;99207.94;;;6.81
75811;BMP280;64449;50.016;19.954;2023-04-28T02:49:14;99206.33;;;6.82
75811;BMP280;64449;50.016;19.954;2023-04-28T02:51:40;99208.36;;;6.84
75811;BMP280;64449;50.016;19.954;2023-04-28T02:54:06;99209.27;;;6.85
75811;BMP280;64449;50.016;19.954;2023-04-28T02:56:33;99210.84;;;6.86
75811;BMP280;64449;50.016;19.954;2023-04-28T02:58:59;99209.85;;;6.86
75811;BMP280;64449;50.016;19.954;2023-04-28T03:01:25;99208.02;;;6.83
75811;BMP280;64449;50.016;19.954;2023-04-28T03:03:50;99211.31;;;6.79
75811;BMP280;64449;50.016;19.954;2023-04-28T03:06:16;99210.23;;;6.77
75811;BMP280;64449;50.016;19.954;2023-04-28T03:08:41;99208.86;;;6.74
75811;BMP280;64449;50.016;19.954;2023-04-28T03:11:07;99208.69;;;6.71
75811;BMP280;64449;50.016;19.954;2023-04-28T03:13:32;99207.80;;;6.67
75811;BMP280;64449;50.016;19.954;2023-04-28T03:15:57;99205.02;;;6.64
75811;BMP280;64449;50.016;19.954;2023-04-28T03:18:23;99208.25;;;6.59
75811;BMP280;64449;50.016;19.954;2023-04-28T03:20:49;99208.92;;;6.52
75811;BMP280;64449;50.016;19.954;2023-04-28T03:23:14;99211.28;;;6.45
75811;BMP280;64449;50.016;19.954;2023-04-28T03:25:40;99214.39;;;6.42
75811;BMP280;64449;50.016;19.954;2023-04-28T03:28:06;99213.63;;;6.37
75811;BMP280;64449;50.016;19.954;2023-04-28T03:30:31;99213.48;;;6.34
75811;BMP280;64449;50.016;19.954;2023-04-28T03:32:56;99214.77;;;6.31
75811;BMP280;64449;50.016;19.954;2023-04-28T03:35:22;99213.16;;;6.28
75811;BMP280;64449;50.016;19.954;2023-04-28T03:37:47;99213.56;;;6.27
75811;BMP280;64449;50.016;19.954;2023-04-28T03:40:13;99213.98;;;6.25
75811;BMP280;64449;50.016;19.954;2023-04-28T03:42:39;99212.63;;;6.24
75811;BMP280;64449;50.016;19.954;2023-04-28T03:45:05;99214.70;;;6.24
75811;BMP280;64449;50.016;19.954;2023-04-28T03:47:31;99215.00;;;6.22
75811;BMP280;64449;50.016;19.954;2023-04-28T03:49:57;99217.89;;;6.22
75811;BMP280;64449;50.016;19.954;2023-04-28T03:52:23;99217.16;;;6.24
75811;BMP280;64449;50.016;19.954;2023-04-28T03:54:49;99218.90;;;6.28
75811;BMP280;64449;50.016;19.954;2023-04-28T03:57:14;99217.73;;;6.32
75811;BMP280;64449;50.016;19.954;2023-04-28T03:59:40;99219.67;;;6.32
75811;BMP280;64449;50.016;19.954;2023-04-28T04:02:05;99219.33;;;6.33
75811;BMP280;64449;50.016;19.954;2023-04-28T04:04:31;99220.15;;;6.35
75811;BMP280;64449;50.016;19.954;2023-04-28T04:06:56;99219.41;;;6.41
75811;BMP280;64449;50.016;19.954;2023-04-28T04:09:22;99219.95;;;6.45
75811;BMP280;64449;50.016;19.954;2023-04-28T04:11:47;99217.42;;;6.47
75811;BMP280;64449;50.016;19.954;2023-04-28T04:14:12;99216.00;;;6.52
75811;BMP280;64449;50.016;19.954;2023-04-28T04:16:38;99216.19;;;6.57
75811;BMP280;64449;50.016;19.954;2023-04-28T04:19:03;99214.48;;;6.61
75811;BMP280;64449;50.016;19.954;2023-04-28T04:21:29;99211.05;;;6.65
75811;BMP280;64449;50.016;19.954;2023-04-28T04:23:56;99210.27;;;6.70
75811;BMP280;64449;50.016;19.954;2023-04-28T04:26:21;99209.66;;;6.66
75811;BMP280;64449;50.016;19.954;2023-04-28T04:28:47;99210.44;;;6.66
75811;BMP280;64449;50.016;19.954;2023-04-28T04:31:12;99208.78;;;6.69
75811;BMP280;64449;50.016;19.954;2023-04-28T04:33:38;99213.02;;;6.74
75811;BMP280;64449;50.016;19.954;2023-04-28T04:36:03;99209.90;;;6.76
75811;BMP280;64449;50.016;19.954;2023-04-28T04:38:29;99210.40;;;6.78
75811;BMP280;64449;50.016;19.954;2023-04-28T04:40:55;99211.81;;;6.79
75811;BMP280;64449;50.016;19.954;2023-04-28T04:43:21;99211.00;;;6.83
75811;BMP280;64449;50.016;19.954;2023-04-28T04:45:46;99210.70;;;6.87
75811;BMP280;64449;50.016;19.954;2023-04-28T04:48:12;99208.96;;;6.92
75811;BMP280;64449;50.016;19.954;2023-04-28T04:50:37;99210.34;;;6.98
75811;BMP280;64449;50.016;19.954;2023-04-28T04:53:03;99209.16;;;7.04
75811;BMP280;64449;50.016;19.954;2023-04-28T04:55:29;99203.70;;;7.11
75811;BMP280;64449;50.016;19.954;2023-04-28T04:57:54;99200.48;;;7.19
75811;BMP280;64449;50.016;19.954;2023-04-28T05:00:20;99199.95;;;7.26
75811;BMP280;64449;50.016;19.954;2023-04-28T05:02:46;99196.23;;;7.35
75811;BMP280;64449;50.016;19.954;2023-04-28T05:05:11;99193.94;;;7.41
75811;BMP280;64449;50.016;19.954;2023-04-28T05:07:37;99197.14;;;7.49
75811;BMP280;64449;50.016;19.954;2023-04-28T05:10:02;99197.23;;;7.56
75811;BMP280;64449;50.016;19.954;2023-04-28T05:12:27;99199.80;;;7.62
75811;BMP280;64449;50.016;19.954;2023-04-28T05:14:53;99203.84;;;7.69
75811;BMP280;64449;50.016;19.954;2023-04-28T05:17:18;99205.00;;;7.77
75811;BMP280;64449;50.016;19.954;2023-04-28T05:19:43;99205.40;;;7.86
75811;BMP280;64449;50.016;19.954;2023-04-28T05:22:09;99203.86;;;7.95
75811;BMP280;64449;50.016;19.954;2023-04-28T05:24:35;99205.76;;;8.05
75811;BMP280;64449;50.016;19.954;2023-04-28T05:27:01;99203.67;;;8.15
75811;BMP280;64449;50.016;19.954;2023-04-28T05:29:26;99202.25;;;8.25
75811;BMP280;64449;50.016;19.954;2023-04-28T05:31:51;99204.52;;;8.35
75811;BMP280;64449;50.016;19.954;2023-04-28T05:34:17;99207.34;;;8.44
75811;BMP280;64449;50.016;19.954;2023-04-28T05:36:42;99206.76;;;8.53
75811;BMP280;64449;50.016;19.954;2023-04-28T05:39:08;99210.27;;;8.61
75811;BMP280;64449;50.016;19.954;2023-04-28T05:41:34;99206.77;;;8.67
75811;BMP280;64449;50.016;19.954;2023-04-28T05:44:01;99206.50;;;8.74
75811;BMP280;64449;50.016;19.954;2023-04-28T05:46:26;99204.21;;;8.81
75811;BMP280;64449;50.016;19.954;2023-04-28T05:48:52;99199.27;;;8.88
75811;BMP280;64449;50.016;19.954;2023-04-28T05:51:17;99200.82;;;8.93
75811;BMP280;64449;50.016;19.954;2023-04-28T05:53:43;99197.09;;;8.99
75811;BMP280;64449;50.016;19.954;2023-04-28T05:56:08;99201.71;;;9.08
75811;BMP280;64449;50.016;19.954;2023-04-28T05:58:34;99201.75;;;9.12
75811;BMP280;64449;50.016;19.954;2023-04-28T06:00:59;99200.98;;;9.16
75811;BMP280;64449;50.016;19.954;2023-04-28T06:03:25;99194.89;;;9.22
75811;BMP280;64449;50.016;19.954;2023-04-28T06:05:51;99198.52;;;9.29
75811;BMP280;64449;50.016;19.954;2023-04-28T06:08:16;99198.11;;;9.35
75811;BMP280;64449;50.016;19.954;2023-04-28T06:10:41;99201.85;;;9.44
75811;BMP280;64449;50.016;19.954;2023-04-28T06:13:07;99206.13;;;9.52
75811;BMP280;64449;50.016;19.954;2023-04-28T06:15:33;99205.30;;;9.62
75811;BMP280;64449;50.016;19.954;2023-04-28T06:17:59;99205.90;;;9.71
75811;BMP280;64449;50.016;19.954;2023-04-28T06:20:24;99211.50;;;9.85
75811;BMP280;64449;50.016;19.954;2023-04-28T06:22:50;99210.45;;;9.99
75811;BMP280;64449;50.016;19.954;2023-04-28T06:25:15;99209.91;;;10.12
75811;BMP280;64449;50.016;19.954;2023-04-28T06:27:41;99209.02;;;10.23
75811;BMP280;64449;50.016;19.954;2023-04-28T06:30:08;99205.65;;;10.33
75811;BMP280;64449;50.016;19.954;2023-04-28T06:32:34;99205.86;;;10.48
75811;BMP280;64449;50.016;19.954;2023-04-28T06:34:59;99206.77;;;10.65
75811;BMP280;64449;50.016;19.954;2023-04-28T06:37:25;99203.61;;;10.79
75811;BMP280;64449;50.016;19.954;2023-04-28T06:39:51;99202.53;;;10.93
75811;BMP280;64449;50.016;19.954;2023-04-28T06:42:16;99208.64;;;11.11
75811;BMP280;64449;50.016;19.954;2023-04-28T06:44:43;99208.64;;;11.27
75811;BMP280;64449;50.016;19.954;2023-04-28T06:47:09;99204.95;;;11.41
75811;BMP280;64449;50.016;19.954;2023-04-28T06:49:35;99201.06;;;11.55
75811;BMP280;64449;50.016;19.954;2023-04-28T06:52:00;99205.10;;;11.75
75811;BMP280;64449;50.016;19.954;2023-04-28T06:54:26;99205.06;;;11.90
75811;BMP280;64449;50.016;19.954;2023-04-28T06:56:51;99199.80;;;12.01
75811;BMP280;64449;50.016;19.954;2023-04-28T06:59:17;99196.84;;;12.15
75811;BMP280;64449;50.016;19.954;2023-04-28T07:01:42;99190.83;;;12.29
75811;BMP280;64449;50.016;19.954;2023-04-28T07:04:08;99186.73;;;12.37
75811;BMP280;64449;50.016;19.954;2023-04-28T07:06:33;99186.76;;;12.46
75811;BMP280;64449;50.016;19.954;2023-04-28T07:08:58;99180.63;;;12.59
75811;BMP280;64449;50.016;19.954;2023-04-28T07:11:24;99183.95;;;12.77
75811;BMP280;64449;50.016;19.954;2023-04-28T07:13:49;99183.13;;;12.91
75811;BMP280;64449;50.016;19.954;2023-04-28T07:16:17;99180.50;;;13.00
75811;BMP280;64449;50.016;19.954;2023-04-28T07:18:43;99178.95;;;13.11
75811;BMP280;64449;50.016;19.954;2023-04-28T07:21:09;99179.77;;;13.24
75811;BMP280;64449;50.016;19.954;2023-04-28T07:23:35;99168.56;;;13.39
75811;BMP280;64449;50.016;19.954;2023-04-28T07:26:03;99167.08;;;13.52
75811;BMP280;64449;50.016;19.954;2023-04-28T07:28:28;99164.90;;;13.63
75811;BMP280;64449;50.016;19.954;2023-04-28T07:30:54;99159.74;;;13.70
75811;BMP280;64449;50.016;19.954;2023-04-28T07:33:19;99159.71;;;13.84
75811;BMP280;64449;50.016;19.954;2023-04-28T07:35:45;99156.40;;;14.02
75811;BMP280;64449;50.016;19.954;2023-04-28T07:38:10;99157.91;;;14.15
75811;BMP280;64449;50.016;19.954;2023-04-28T07:40:36;99154.98;;;14.32
75811;BMP280;64449;50.016;19.954;2023-04-28T07:43:01;99156.84;;;14.47
75811;BMP280;64449;50.016;19.954;2023-04-28T07:45:28;99150.82;;;14.62
75811;BMP280;64449;50.016;19.954;2023-04-28T07:47:53;99152.71;;;14.80
75811;BMP280;64449;50.016;19.954;2023-04-28T07:50:19;99145.27;;;14.94
75811;BMP280;64449;50.016;19.954;2023-04-28T07:52:44;99147.16;;;15.03
75811;BMP280;64449;50.016;19.954;2023-04-28T07:55:10;99139.91;;;15.07
75811;BMP280;64449;50.016;19.954;2023-04-28T07:57:35;99139.34;;;15.19
75811;BMP280;64449;50.016;19.954;2023-04-28T08:00:02;99137.99;;;15.33
75811;BMP280;64449;50.016;19.954;2023-04-28T08:02:27;99138.88;;;15.48
75811;BMP280;64449;50.016;19.954;2023-04-28T08:04:53;99136.05;;;15.61
75811;BMP280;64449;50.016;19.954;2023-04-28T08:07:18;99137.77;;;15.76
75811;BMP280;64449;50.016;19.954;2023-04-28T08:09:43;99140.26;;;15.93
75811;BMP280;64449;50.016;19.954;2023-04-28T08:12:12;99134.67;;;16.02
75811;BMP280;64449;50.016;19.954;2023-04-28T08:14:37;99133.03;;;16.20
75811;BMP280;64449;50.016;19.954;2023-04-28T08:17:03;99132.16;;;16.39
75811;BMP280;64449;50.016;19.954;2023-04-28T08:19:28;99135.09;;;16.47
75811;BMP280;64449;50.016;19.954;2023-04-28T08:21:54;99129.95;;;16.57
75811;BMP280;64449;50.016;19.954;2023-04-28T08:24:19;99129.44;;;16.68
75811;BMP280;64449;50.016;19.954;2023-04-28T08:26:45;99131.83;;;16.84
75811;BMP280;64449;50.016;19.954;2023-04-28T08:29:10;99126.05;;;16.96
75811;BMP280;64449;50.016;19.954;2023-04-28T08:31:36;99123.48;;;17.12
75811;BMP280;64449;50.016;19.954;2023-04-28T08:34:02;99117.90;;;17.41
75811;BMP280;64449;50.016;19.954;2023-04-28T08:36:27;99118.59;;;17.65
75811;BMP280;64449;50.016;19.954;2023-04-28T08:38:56;99121.46;;;17.87
75811;BMP280;64449;50.016;19.954;2023-04-28T08:41:24;99116.48;;;17.85
75811;BMP280;64449;50.016;19.954;2023-04-28T08:43:53;99114.16;;;17.89
75811;BMP280;64449;50.016;19.954;2023-04-28T08:46:20;99113.72;;;18.04
75811;BMP280;64449;50.016;19.954;2023-04-28T08:48:48;99112.14;;;18.11
75811;BMP280;64449;50.016;19.954;2023-04-28T08:51:15;99110.27;;;18.17
75811;BMP280;64449;50.016;19.954;2023-04-28T08:53:44;99109.42;;;18.29
75811;BMP280;64449;50.016;19.954;2023-04-28T08:56:14;99114.56;;;18.44
75811;BMP280;64449;50.016;19.954;2023-04-28T08:58:41;99110.44;;;18.59
75811;BMP280;64449;50.016;19.954;2023-04-28T09:01:07;99108.63;;;18.74
75811;BMP280;64449;50.016;19.954;2023-04-28T09:03:33;99105.96;;;18.84
75811;BMP280;64449;50.016;19.954;2023-04-28T09:06:00;99105.61;;;19.16
75811;BMP280;64449;50.016;19.954;2023-04-28T09:08:26;99097.33;;;19.46
75811;BMP280;64449;50.016;19.954;2023-04-28T09:11:06;99096.60;;;19.77
75811;BMP280;64449;50.016;19.954;2023-04-28T09:13:32;99096.95;;;20.15
75811;BMP280;64449;50.016;19.954;2023-04-28T09:15:59;99098.04;;;20.42
75811;BMP280;64449;50.016;19.954;2023-04-28T09:18:25;99092.94;;;20.50
75811;BMP280;64449;50.016;19.954;2023-04-28T09:20:51;99090.02;;;20.58
75811;BMP280;64449;50.016;19.954;2023-04-28T09:23:18;99088.31;;;20.80
75811;BMP280;64449;50.016;19.954;2023-04-28T09:26:05;99084.89;;;21.01
75811;BMP280;64449;50.016;19.954;2023-04-28T09:28:32;99081.39;;;21.00
75811;BMP280;64449;50.016;19.954;2023-04-28T09:30:58;99079.86;;;21.08
75811;BMP280;64449;50.016;19.954;2023-04-28T09:33:24;99075.89;;;21.07
75811;BMP280;64449;50.016;19.954;2023-04-28T09:35:50;99071.52;;;21.10
75811;BMP280;64449;50.016;19.954;2023-04-28T09:38:16;99061.94;;;21.24
75811;BMP280;64449;50.016;19.954;2023-04-28T09:40:57;99059.67;;;21.45
75811;BMP280;64449;50.016;19.954;2023-04-28T09:43:34;99056.69;;;21.76
75811;BMP280;64449;50.016;19.954;2023-04-28T09:46:01;99056.23;;;21.89
75811;BMP280;64449;50.016;19.954;2023-04-28T09:48:35;99056.13;;;22.00
75811;BMP280;64449;50.016;19.954;2023-04-28T09:51:05;99054.08;;;21.85
75811;BMP280;64449;50.016;19.954;2023-04-28T09:53:32;99051.86;;;21.76
75811;BMP280;64449;50.016;19.954;2023-04-28T09:55:59;99049.29;;;21.88
75811;BMP280;64449;50.016;19.954;2023-04-28T09:58:26;99046.59;;;22.04
75811;BMP280;64449;50.016;19.954;2023-04-28T10:00:54;99049.33;;;22.13
75811;BMP280;64449;50.016;19.954;2023-04-28T10:03:24;99040.09;;;22.22
75811;BMP280;64449;50.016;19.954;2023-04-28T10:05:50;99040.52;;;22.38
75811;BMP280;64449;50.016;19.954;2023-04-28T10:08:19;99036.64;;;22.68
75811;BMP280;64449;50.016;19.954;2023-04-28T10:10:46;99032.02;;;23.04
75811;BMP280;64449;50.016;19.954;2023-04-28T10:13:16;99026.23;;;23.31
75811;BMP280;64449;50.016;19.954;2023-04-28T10:15:43;99026.82;;;23.54
75811;BMP280;64449;50.016;19.954;2023-04-28T10:18:10;99021.28;;;23.80
75811;BMP280;64449;50.016;19.954;2023-04-28T10:20:36;99023.23;;;24.18
75811;BMP280;64449;50.016;19.954;2023-04-28T10:25:53;99016.30;;;24.61
75811;BMP280;64449;50.016;19.954;2023-04-28T10:28:21;99012.45;;;24.68
75811;BMP280;64449;50.016;19.954;2023-04-28T10:31:10;99006.70;;;24.53
75811;BMP280;64449;50.016;19.954;2023-04-28T10:33:36;99002.98;;;24.01
75811;BMP280;64449;50.016;19.954;2023-04-28T10:36:03;99000.93;;;23.92
75811;BMP280;64449;50.016;19.954;2023-04-28T10:38:29;98994.55;;;23.52
75811;BMP280;64449;50.016;19.954;2023-04-28T10:40:55;98990.41;;;23.18
75811;BMP280;64449;50.016;19.954;2023-04-28T10:48:18;98984.33;;;23.25
75811;BMP280;64449;50.016;19.954;2023-04-28T10:56:17;98969.46;;;23.56
75811;BMP280;64449;50.016;19.954;2023-04-28T10:58:51;98967.34;;;23.57
75811;BMP280;64449;50.016;19.954;2023-04-28T11:03:57;98966.40;;;23.67
75811;BMP280;64449;50.016;19.954;2023-04-28T11:06:38;98961.21;;;23.63
75811;BMP280;64449;50.016;19.954;2023-04-28T11:16:57;98958.42;;;23.90
75811;BMP280;64449;50.016;19.954;2023-04-28T11:19:34;98952.50;;;23.91
75811;BMP280;64449;50.016;19.954;2023-04-28T11:22:18;98947.89;;;23.72
75811;BMP280;64449;50.016;19.954;2023-04-28T11:24:55;98949.90;;;23.89
75811;BMP280;64449;50.016;19.954;2023-04-28T11:27:24;98945.84;;;24.11
75811;BMP280;64449;50.016;19.954;2023-04-28T11:29:51;98942.40;;;24.14
75811;BMP280;64449;50.016;19.954;2023-04-28T11:32:25;98943.14;;;24.18
75811;BMP280;64449;50.016;19.954;2023-04-28T11:34:52;98942.36;;;24.25
75811;BMP280;64449;50.016;19.954;2023-04-28T11:37:18;98939.59;;;24.06
75811;BMP280;64449;50.016;19.954;2023-04-28T11:39:45;98939.41;;;23.73
75811;BMP280;64449;50.016;19.954;2023-04-28T11:42:11;98934.66;;;23.51
75811;BMP280;64449;50.016;19.954;2023-04-28T11:44:36;98931.33;;;23.42
75811;BMP280;64449;50.016;19.954;2023-04-28T11:47:03;98929.27;;;23.34
75811;BMP280;64449;50.016;19.954;2023-04-28T11:49:31;98927.52;;;23.10
75811;BMP280;64449;50.016;19.954;2023-04-28T11:52:04;98923.44;;;22.82
75811;BMP280;64449;50.016;19.954;2023-04-28T11:54:30;98914.68;;;22.75
75811;BMP280;64449;50.016;19.954;2023-04-28T11:56:57;98917.67;;;22.88
75811;BMP280;64449;50.016;19.954;2023-04-28T11:59:28;98911.66;;;23.13
75811;BMP280;64449;50.016;19.954;2023-04-28T12:02:01;98909.81;;;23.27
75811;BMP280;64449;50.016;19.954;2023-04-28T12:04:28;98905.23;;;23.35
75811;BMP280;64449;50.016;19.954;2023-04-28T12:09:28;98905.25;;;23.69
75811;BMP280;64449;50.016;19.954;2023-04-28T12:11:59;98900.77;;;23.84
75811;BMP280;64449;50.016;19.954;2023-04-28T12:14:27;98892.16;;;23.99
75811;BMP280;64449;50.016;19.954;2023-04-28T12:16:53;98887.23;;;23.80
75811;BMP280;64449;50.016;19.954;2023-04-28T12:19:18;98883.64;;;23.89
75811;BMP280;64449;50.016;19.954;2023-04-28T12:21:58;98873.47;;;24.07
75811;BMP280;64449;50.016;19.954;2023-04-28T12:24:24;98865.95;;;24.32
75811;BMP280;64449;50.016;19.954;2023-04-28T12:26:51;98861.54;;;24.57
75811;BMP280;64449;50.016;19.954;2023-04-28T12:29:36;98858.73;;;24.74
75811;BMP280;64449;50.016;19.954;2023-04-28T12:32:06;98855.29;;;24.80
75811;BMP280;64449;50.016;19.954;2023-04-28T12:34:32;98853.73;;;24.69
75811;BMP280;64449;50.016;19.954;2023-04-28T12:37:02;98850.27;;;24.68
75811;BMP280;64449;50.016;19.954;2023-04-28T12:39:27;98844.63;;;24.49
75811;BMP280;64449;50.016;19.954;2023-04-28T12:41:53;98836.48;;;24.38
75811;BMP280;64449;50.016;19.954;2023-04-28T12:44:24;98832.00;;;24.16
75811;BMP280;64449;50.016;19.954;2023-04-28T12:46:50;98831.03;;;23.86
75811;BMP280;64449;50.016;19.954;2023-04-28T12:49:16;98827.83;;;23.76
75811;BMP280;64449;50.016;19.954;2023-04-28T12:51:42;98827.33;;;23.74
75811;BMP280;64449;50.016;19.954;2023-04-28T12:54:07;98823.54;;;23.77
75811;BMP280;64449;50.016;19.954;2023-04-28T12:56:33;98822.64;;;23.80
75811;BMP280;64449;50.016;19.954;2023-04-28T12:58:59;98819.48;;;23.87
75811;BMP280;64449;50.016;19.954;2023-04-28T13:01:27;98815.50;;;24.00
75811;BMP280;64449;50.016;19.954;2023-04-28T13:03:52;98815.70;;;24.12
75811;BMP280;64449;50.016;19.954;2023-04-28T13:06:18;98810.94;;;24.23
75811;BMP280;64449;50.016;19.954;2023-04-28T13:08:44;98806.42;;;24.34
75811;BMP280;64449;50.016;19.954;2023-04-28T13:11:10;98806.08;;;24.49
75811;BMP280;64449;50.016;19.954;2023-04-28T13:13:36;98805.11;;;24.61
75811;BMP280;64449;50.016;19.954;2023-04-28T13:16:02;98806.79;;;24.69
75811;BMP280;64449;50.016;19.954;2023-04-28T13:18:29;98801.66;;;24.70
75811;BMP280;64449;50.016;19.954;2023-04-28T13:20:55;98799.05;;;24.64
75811;BMP280;64449;50.016;19.954;2023-04-28T13:23:21;98798.96;;;24.61
75811;BMP280;64449;50.016;19.954;2023-04-28T13:25:46;98794.66;;;24.47
75811;BMP280;64449;50.016;19.954;2023-04-28T13:28:11;98790.28;;;24.49
75811;BMP280;64449;50.016;19.954;2023-04-28T13:30:38;98785.23;;;24.31
75811;BMP280;64449;50.016;19.954;2023-04-28T13:33:04;98777.69;;;24.16
75811;BMP280;64449;50.016;19.954;2023-04-28T13:35:29;98775.27;;;24.00
75811;BMP280;64449;50.016;19.954;2023-04-28T13:37:55;98773.40;;;23.89
75811;BMP280;64449;50.016;19.954;2023-04-28T13:40:26;98768.13;;;23.73
75811;BMP280;64449;50.016;19.954;2023-04-28T13:42:53;98770.31;;;23.51
75811;BMP280;64449;50.016;19.954;2023-04-28T13:45:18;98769.70;;;23.45
75811;BMP280;64449;50.016;19.954;2023-04-28T13:47:44;98771.10;;;23.47
75811;BMP280;64449;50.016;19.954;2023-04-28T13:50:10;98771.60;;;23.45
75811;BMP280;64449;50.016;19.954;2023-04-28T13:52:35;98761.94;;;23.32
75811;BMP280;64449;50.016;19.954;2023-04-28T13:55:01;98756.91;;;23.26
75811;BMP280;64449;50.016;19.954;2023-04-28T13:57:26;98753.77;;;23.32
75811;BMP280;64449;50.016;19.954;2023-04-28T13:59:52;98751.89;;;23.36
75811;BMP280;64449;50.016;19.954;2023-04-28T14:02:17;98750.89;;;23.42
75811;BMP280;64449;50.016;19.954;2023-04-28T14:04:43;98743.98;;;23.37
75811;BMP280;64449;50.016;19.954;2023-04-28T14:07:13;98735.81;;;23.38
75811;BMP280;64449;50.016;19.954;2023-04-28T14:09:38;98735.06;;;23.34
75811;BMP280;64449;50.016;19.954;2023-04-28T14:12:05;98731.23;;;23.12
75811;BMP280;64449;50.016;19.954;2023-04-28T14:14:31;98730.16;;;22.82
75811;BMP280;64449;50.016;19.954;2023-04-28T14:16:57;98731.71;;;22.49
75811;BMP280;64449;50.016;19.954;2023-04-28T14:19:23;98732.40;;;22.34
75811;BMP280;64449;50.016;19.954;2023-04-28T14:21:51;98734.17;;;22.30
75811;BMP280;64449;50.016;19.954;2023-04-28T14:24:17;98733.20;;;22.18